MSC Paola — 9HA2581 — position and weather

sailwx.info

Track history (hours):
 
Tides and Currents Weather Stations Pressure Air Temp Water Temp Dewpoint Dewpoint Depression Visibility Wind Speed Wind Dir Waves Ship Positions

MSC Paola

Last reported at 2015-Jun-21 18:33 UTC. Time now 2015-Jul-04 07:04 UTC.
Position S 33°52' E 018°26'.
Warning: this ship's position is 12 days out of date.

Length 243 m; draft 9 m.

Type: Ship (hazmat cat A). MMSI: 248931000.

Date/timePositionNaut miles runAvg speedWind from/ knotsBaromVisibWave heightAir tempDewpointWater temp
2015-Jun-21 18:33S 33°52' E 018°26'3 0.1
2015-Jun-19 23:05S 33°55' E 018°26'0 0.0
2015-Jun-19 22:21S 33°55' E 018°26'5 2.7
2015-Jun-19 20:28S 33°50' E 018°25'1 0.2
2015-Jun-19 17:16S 33°49' E 018°24'2212.2
2015-Jun-19 15:28S 34°10' E 018°15'34414.8
2015-Jun-18 16:12S 34°17' E 025°11'2615.2
2015-Jun-18 14:30S 34°11' E 025°41'9615.5
2015-Jun-18 08:17S 33°32' E 027°27'26114.6
2015-Jun-17 14:26S 30°18' E 030°52'1112.7
2015-Jun-17 13:33S 30°08' E 030°57'1212.0
2015-Jun-17 12:33S 29°57' E 031°04'5 5.3
2015-Jun-17 11:33S 29°52' E 031°02'1 0.7
2015-Jun-17 10:32S 29°53' E 031°02'0 0.0
2015-Jun-17 09:29S 29°53' E 031°02'0 0.0
2015-Jun-17 08:31S 29°53' E 031°02'0 0.0
2015-Jun-17 07:31S 29°53' E 031°02'0 0.0
2015-Jun-17 06:31S 29°53' E 031°02'0 0.0
2015-Jun-17 05:31S 29°53' E 031°02'0 0.0
2015-Jun-17 04:31S 29°53' E 031°02'0 0.0
2015-Jun-17 03:31S 29°53' E 031°02'0 0.0
2015-Jun-17 02:31S 29°53' E 031°02'0 0.0
2015-Jun-17 01:31S 29°53' E 031°02'0 0.0
2015-Jun-17 00:31S 29°53' E 031°02'0 0.0
2015-Jun-16 23:31S 29°53' E 031°02'0 0.0
2015-Jun-16 22:31S 29°53' E 031°02'0 0.0
2015-Jun-16 21:31S 29°53' E 031°02'0 0.0
2015-Jun-16 20:31S 29°53' E 031°02'0 0.0
2015-Jun-16 19:31S 29°53' E 031°02'0 0.0
2015-Jun-16 18:31S 29°53' E 031°01'0 0.0
2015-Jun-16 17:31S 29°53' E 031°02'0 0.0
2015-Jun-16 16:31S 29°53' E 031°02'0 0.0
2015-Jun-16 15:31S 29°53' E 031°02'0 0.0
2015-Jun-16 14:31S 29°53' E 031°02'0 0.0
2015-Jun-16 13:28S 29°53' E 031°02'0 0.0
2015-Jun-16 12:31S 29°53' E 031°02'0 0.0
2015-Jun-16 11:31S 29°53' E 031°02'0 0.0
2015-Jun-16 10:31S 29°53' E 031°02'0 0.0
2015-Jun-16 09:31S 29°53' E 031°02'0 0.0
2015-Jun-16 08:31S 29°53' E 031°02'0 0.0
2015-Jun-16 07:31S 29°53' E 031°02'0 0.0
2015-Jun-16 06:33S 29°53' E 031°02'5 5.1
2015-Jun-16 05:33S 29°49' E 031°06'1 1.3
2015-Jun-16 04:33S 29°48' E 031°07'3 3.0
2015-Jun-16 03:33S 29°46' E 031°08'2 1.5
2015-Jun-16 02:33S 29°45' E 031°09'0 0.1
2015-Jun-16 01:32S 29°44' E 031°09'0 0.0
2015-Jun-16 00:32S 29°44' E 031°09'0 0.0
2015-Jun-15 23:33S 29°44' E 031°09'0 0.0
2015-Jun-15 22:32S 29°44' E 031°09'0 0.1
2015-Jun-15 21:32S 29°45' E 031°09'0 0.1
2015-Jun-15 20:31S 29°45' E 031°09'0 0.0
2015-Jun-15 19:31S 29°45' E 031°09'0 0.1
2015-Jun-15 18:31S 29°45' E 031°09'0 0.0
2015-Jun-15 17:31S 29°45' E 031°09'0 0.0
2015-Jun-15 16:31S 29°45' E 031°09'0 0.0
2015-Jun-15 15:34S 29°45' E 031°09'0 0.1
2015-Jun-15 14:31S 29°45' E 031°09'0 0.1
2015-Jun-15 13:33S 29°45' E 031°09'0 0.0
2015-Jun-15 12:32S 29°44' E 031°09'0 0.0
2015-Jun-15 11:32S 29°44' E 031°09'0 0.0
2015-Jun-15 10:32S 29°44' E 031°09'0 0.0
2015-Jun-15 09:32S 29°45' E 031°09'0 0.0
2015-Jun-15 08:31S 29°45' E 031°09'0 0.1
2015-Jun-15 07:07S 29°44' E 031°09'0 0.1
2015-Jun-15 06:16S 29°44' E 031°09'0 0.0
2015-Jun-15 05:31S 29°44' E 031°09'0 0.1
2015-Jun-15 04:31S 29°44' E 031°09'0 0.1
2015-Jun-15 03:31S 29°44' E 031°09'0 0.0
2015-Jun-15 02:33S 29°44' E 031°09'0 0.0
2015-Jun-15 01:32S 29°44' E 031°09'0 0.0
2015-Jun-15 00:32S 29°44' E 031°09'0 0.0
2015-Jun-14 23:32S 29°44' E 031°09'0 0.0
2015-Jun-14 22:32S 29°44' E 031°09'0 0.1
2015-Jun-14 21:32S 29°44' E 031°09'0 0.0
2015-Jun-14 20:32S 29°44' E 031°09'0 0.0
2015-Jun-14 19:32S 29°44' E 031°09'0 0.1
2015-Jun-14 18:32S 29°44' E 031°09'0 0.0
2015-Jun-14 17:32S 29°44' E 031°09'0 0.0
2015-Jun-14 16:32S 29°44' E 031°09'0 0.0
2015-Jun-14 15:32S 29°44' E 031°09'0 0.0
2015-Jun-14 14:32S 29°44' E 031°09'0 0.0
2015-Jun-14 13:32S 29°44' E 031°09'0 0.0
2015-Jun-14 12:32S 29°44' E 031°09'0 0.0
2015-Jun-14 11:32S 29°44' E 031°09'0 0.0
2015-Jun-14 10:32S 29°44' E 031°09'0 0.0
2015-Jun-14 09:32S 29°44' E 031°09'0 0.0
2015-Jun-14 08:32S 29°44' E 031°09'0 0.0
2015-Jun-14 07:32S 29°44' E 031°09'0 0.0
2015-Jun-14 06:32S 29°44' E 031°09'0 0.0
2015-Jun-14 05:31S 29°44' E 031°09'0 0.0
2015-Jun-14 04:31S 29°44' E 031°09'0 0.0
2015-Jun-14 03:31S 29°44' E 031°09'0 0.1
2015-Jun-14 02:31S 29°45' E 031°09'0 0.1
2015-Jun-14 01:31S 29°44' E 031°09'0 0.0
2015-Jun-14 00:31S 29°45' E 031°09'0 0.0
2015-Jun-13 23:31S 29°45' E 031°09'0 0.0
2015-Jun-13 22:31S 29°45' E 031°09'0 0.0
2015-Jun-13 21:31S 29°45' E 031°09'0 0.0
2015-Jun-13 20:31S 29°45' E 031°09'0 0.1
2015-Jun-13 19:31S 29°45' E 031°09'0 0.0
2015-Jun-13 18:31S 29°45' E 031°09'0 0.0
2015-Jun-13 17:31S 29°45' E 031°09'0 0.0
2015-Jun-13 16:31S 29°45' E 031°09'0 0.0
2015-Jun-13 15:31S 29°45' E 031°09'0 0.0
2015-Jun-13 14:31S 29°45' E 031°09'0 0.0
2015-Jun-13 13:31S 29°45' E 031°09'0 0.0
2015-Jun-13 12:31S 29°45' E 031°09'0 0.0
2015-Jun-13 11:31S 29°45' E 031°09'0 0.0
2015-Jun-13 10:28S 29°45' E 031°09'0 0.1
2015-Jun-13 09:28S 29°44' E 031°09'0 0.1
2015-Jun-13 08:28S 29°44' E 031°09'0 0.1
2015-Jun-13 07:31S 29°44' E 031°09'0 0.0
2015-Jun-13 06:31S 29°44' E 031°09'0 0.0
2015-Jun-13 05:28S 29°44' E 031°09'0 0.0
2015-Jun-13 04:31S 29°44' E 031°09'0 0.1
2015-Jun-13 03:31S 29°45' E 031°09'0 0.0
2015-Jun-13 02:31S 29°44' E 031°09'0 0.1
2015-Jun-13 01:31S 29°45' E 031°09'0 0.1
2015-Jun-13 00:31S 29°44' E 031°09'0 0.0
2015-Jun-12 23:31S 29°44' E 031°09'0 0.0
2015-Jun-12 22:31S 29°44' E 031°09'0 0.0
2015-Jun-12 21:31S 29°44' E 031°09'0 0.0
2015-Jun-12 20:31S 29°44' E 031°09'0 0.0
2015-Jun-12 19:34S 29°44' E 031°09'0 0.0
2015-Jun-12 18:34S 29°44' E 031°09'0 0.0
2015-Jun-12 17:33S 29°44' E 031°09'0 0.0
2015-Jun-12 16:33S 29°44' E 031°09'0 0.0
2015-Jun-12 15:33S 29°44' E 031°09'0 0.0
2015-Jun-12 14:33S 29°44' E 031°09'0 0.0
2015-Jun-12 13:33S 29°44' E 031°09'0 0.0
2015-Jun-12 12:33S 29°44' E 031°09'0 0.0
2015-Jun-12 09:33S 29°44' E 031°09'0 0.1
2015-Jun-12 08:33S 29°44' E 031°09'0 0.1
2015-Jun-12 07:30S 29°44' E 031°09'0 0.0
2015-Jun-12 06:33S 29°44' E 031°09'5 5.4
2015-Jun-12 05:34S 29°50' E 031°08'4 4.4
2015-Jun-12 04:33S 29°45' E 031°08'2 1.7
2015-Jun-12 03:31S 29°44' E 031°09'0 0.0
2015-Jun-12 02:31S 29°44' E 031°09'0 0.1
2015-Jun-12 01:31S 29°44' E 031°09'0 0.0
2015-Jun-12 00:22S 29°44' E 031°09'0 0.0
2015-Jun-11 23:31S 29°44' E 031°09'0 0.0
2015-Jun-11 22:31S 29°44' E 031°09'0 0.0
2015-Jun-11 21:31S 29°44' E 031°09'0 0.0
2015-Jun-11 20:31S 29°44' E 031°09'0 0.0
2015-Jun-11 19:31S 29°44' E 031°09'  
Track history (hours):
 
Tides and Currents Weather Stations Pressure Air Temp Water Temp Dewpoint Dewpoint Depression Visibility Wind Speed Wind Dir Waves Ship Positions

MSC Paola

Last reported at 2015-Jun-21 18:33 UTC. Time now 2015-Jul-04 07:04 UTC.
Position S 33°52' E 018°26'.
Warning: this ship's position is 12 days out of date.

Length 243 m; draft 9 m.

Type: Ship (hazmat cat A). MMSI: 248931000.

Date/timePositionNaut miles runAvg speedWind from/ knotsBaromVisibWave heightAir tempDewpointWater temp
2015-Jun-21 18:33S 33°52' E 018°26'3 0.1
2015-Jun-19 23:05S 33°55' E 018°26'0 0.0
2015-Jun-19 22:21S 33°55' E 018°26'5 2.7
2015-Jun-19 20:28S 33°50' E 018°25'1 0.2
2015-Jun-19 17:16S 33°49' E 018°24'2212.2
2015-Jun-19 15:28S 34°10' E 018°15'34414.8
2015-Jun-18 16:12S 34°17' E 025°11'2615.2
2015-Jun-18 14:30S 34°11' E 025°41'9615.5
2015-Jun-18 08:17S 33°32' E 027°27'26114.6
2015-Jun-17 14:26S 30°18' E 030°52'1112.7
2015-Jun-17 13:33S 30°08' E 030°57'1212.0
2015-Jun-17 12:33S 29°57' E 031°04'5 5.3
2015-Jun-17 11:33S 29°52' E 031°02'1 0.7
2015-Jun-17 10:32S 29°53' E 031°02'0 0.0
2015-Jun-17 09:29S 29°53' E 031°02'0 0.0
2015-Jun-17 08:31S 29°53' E 031°02'0 0.0
2015-Jun-17 07:31S 29°53' E 031°02'0 0.0
2015-Jun-17 06:31S 29°53' E 031°02'0 0.0
2015-Jun-17 05:31S 29°53' E 031°02'0 0.0
2015-Jun-17 04:31S 29°53' E 031°02'0 0.0
2015-Jun-17 03:31S 29°53' E 031°02'0 0.0
2015-Jun-17 02:31S 29°53' E 031°02'0 0.0
2015-Jun-17 01:31S 29°53' E 031°02'0 0.0
2015-Jun-17 00:31S 29°53' E 031°02'0 0.0
2015-Jun-16 23:31S 29°53' E 031°02'0 0.0
2015-Jun-16 22:31S 29°53' E 031°02'0 0.0
2015-Jun-16 21:31S 29°53' E 031°02'0 0.0
2015-Jun-16 20:31S 29°53' E 031°02'0 0.0
2015-Jun-16 19:31S 29°53' E 031°02'0 0.0
2015-Jun-16 18:31S 29°53' E 031°01'0 0.0
2015-Jun-16 17:31S 29°53' E 031°02'0 0.0
2015-Jun-16 16:31S 29°53' E 031°02'0 0.0
2015-Jun-16 15:31S 29°53' E 031°02'0 0.0
2015-Jun-16 14:31S 29°53' E 031°02'0 0.0
2015-Jun-16 13:28S 29°53' E 031°02'0 0.0
2015-Jun-16 12:31S 29°53' E 031°02'0 0.0
2015-Jun-16 11:31S 29°53' E 031°02'0 0.0
2015-Jun-16 10:31S 29°53' E 031°02'0 0.0
2015-Jun-16 09:31S 29°53' E 031°02'0 0.0
2015-Jun-16 08:31S 29°53' E 031°02'0 0.0
2015-Jun-16 07:31S 29°53' E 031°02'0 0.0
2015-Jun-16 06:33S 29°53' E 031°02'5 5.1
2015-Jun-16 05:33S 29°49' E 031°06'1 1.3
2015-Jun-16 04:33S 29°48' E 031°07'3 3.0
2015-Jun-16 03:33S 29°46' E 031°08'2 1.5
2015-Jun-16 02:33S 29°45' E 031°09'0 0.1
2015-Jun-16 01:32S 29°44' E 031°09'0 0.0
2015-Jun-16 00:32S 29°44' E 031°09'0 0.0
2015-Jun-15 23:33S 29°44' E 031°09'0 0.0
2015-Jun-15 22:32S 29°44' E 031°09'0 0.1
2015-Jun-15 21:32S 29°45' E 031°09'0 0.1
2015-Jun-15 20:31S 29°45' E 031°09'0 0.0
2015-Jun-15 19:31S 29°45' E 031°09'0 0.1
2015-Jun-15 18:31S 29°45' E 031°09'0 0.0
2015-Jun-15 17:31S 29°45' E 031°09'0 0.0
2015-Jun-15 16:31S 29°45' E 031°09'0 0.0
2015-Jun-15 15:34S 29°45' E 031°09'0 0.1
2015-Jun-15 14:31S 29°45' E 031°09'0 0.1
2015-Jun-15 13:33S 29°45' E 031°09'0 0.0
2015-Jun-15 12:32S 29°44' E 031°09'0 0.0
2015-Jun-15 11:32S 29°44' E 031°09'0 0.0
2015-Jun-15 10:32S 29°44' E 031°09'0 0.0
2015-Jun-15 09:32S 29°45' E 031°09'0 0.0
2015-Jun-15 08:31S 29°45' E 031°09'0 0.1
2015-Jun-15 07:07S 29°44' E 031°09'0 0.1
2015-Jun-15 06:16S 29°44' E 031°09'0 0.0
2015-Jun-15 05:31S 29°44' E 031°09'0 0.1
2015-Jun-15 04:31S 29°44' E 031°09'0 0.1
2015-Jun-15 03:31S 29°44' E 031°09'0 0.0
2015-Jun-15 02:33S 29°44' E 031°09'0 0.0
2015-Jun-15 01:32S 29°44' E 031°09'0 0.0
2015-Jun-15 00:32S 29°44' E 031°09'0 0.0
2015-Jun-14 23:32S 29°44' E 031°09'0 0.0
2015-Jun-14 22:32S 29°44' E 031°09'0 0.1
2015-Jun-14 21:32S 29°44' E 031°09'0 0.0
2015-Jun-14 20:32S 29°44' E 031°09'0 0.0
2015-Jun-14 19:32S 29°44' E 031°09'0 0.1
2015-Jun-14 18:32S 29°44' E 031°09'0 0.0
2015-Jun-14 17:32S 29°44' E 031°09'0 0.0
2015-Jun-14 16:32S 29°44' E 031°09'0 0.0
2015-Jun-14 15:32S 29°44' E 031°09'0 0.0
2015-Jun-14 14:32S 29°44' E 031°09'0 0.0
2015-Jun-14 13:32S 29°44' E 031°09'0 0.0
2015-Jun-14 12:32S 29°44' E 031°09'0 0.0
2015-Jun-14 11:32S 29°44' E 031°09'0 0.0
2015-Jun-14 10:32S 29°44' E 031°09'0 0.0
2015-Jun-14 09:32S 29°44' E 031°09'0 0.0
2015-Jun-14 08:32S 29°44' E 031°09'0 0.0
2015-Jun-14 07:32S 29°44' E 031°09'0 0.0
2015-Jun-14 06:32S 29°44' E 031°09'0 0.0
2015-Jun-14 05:31S 29°44' E 031°09'0 0.0
2015-Jun-14 04:31S 29°44' E 031°09'0 0.0
2015-Jun-14 03:31S 29°44' E 031°09'0 0.1
2015-Jun-14 02:31S 29°45' E 031°09'0 0.1
2015-Jun-14 01:31S 29°44' E 031°09'0 0.0
2015-Jun-14 00:31S 29°45' E 031°09'0 0.0
2015-Jun-13 23:31S 29°45' E 031°09'0 0.0
2015-Jun-13 22:31S 29°45' E 031°09'0 0.0
2015-Jun-13 21:31S 29°45' E 031°09'0 0.0
2015-Jun-13 20:31S 29°45' E 031°09'0 0.1
2015-Jun-13 19:31S 29°45' E 031°09'0 0.0
2015-Jun-13 18:31S 29°45' E 031°09'0 0.0
2015-Jun-13 17:31S 29°45' E 031°09'0 0.0
2015-Jun-13 16:31S 29°45' E 031°09'0 0.0
2015-Jun-13 15:31S 29°45' E 031°09'0 0.0
2015-Jun-13 14:31S 29°45' E 031°09'0 0.0
2015-Jun-13 13:31S 29°45' E 031°09'0 0.0
2015-Jun-13 12:31S 29°45' E 031°09'0 0.0
2015-Jun-13 11:31S 29°45' E 031°09'0 0.0
2015-Jun-13 10:28S 29°45' E 031°09'0 0.1
2015-Jun-13 09:28S 29°44' E 031°09'0 0.1
2015-Jun-13 08:28S 29°44' E 031°09'0 0.1
2015-Jun-13 07:31S 29°44' E 031°09'0 0.0
2015-Jun-13 06:31S 29°44' E 031°09'0 0.0
2015-Jun-13 05:28S 29°44' E 031°09'0 0.0
2015-Jun-13 04:31S 29°44' E 031°09'0 0.1
2015-Jun-13 03:31S 29°45' E 031°09'0 0.0
2015-Jun-13 02:31S 29°44' E 031°09'0 0.1
2015-Jun-13 01:31S 29°45' E 031°09'0 0.1
2015-Jun-13 00:31S 29°44' E 031°09'0 0.0
2015-Jun-12 23:31S 29°44' E 031°09'0 0.0
2015-Jun-12 22:31S 29°44' E 031°09'0 0.0
2015-Jun-12 21:31S 29°44' E 031°09'0 0.0
2015-Jun-12 20:31S 29°44' E 031°09'0 0.0
2015-Jun-12 19:34S 29°44' E 031°09'0 0.0
2015-Jun-12 18:34S 29°44' E 031°09'0 0.0
2015-Jun-12 17:33S 29°44' E 031°09'0 0.0
2015-Jun-12 16:33S 29°44' E 031°09'0 0.0
2015-Jun-12 15:33S 29°44' E 031°09'0 0.0
2015-Jun-12 14:33S 29°44' E 031°09'0 0.0
2015-Jun-12 13:33S 29°44' E 031°09'0 0.0
2015-Jun-12 12:33S 29°44' E 031°09'0 0.0
2015-Jun-12 09:33S 29°44' E 031°09'0 0.1
2015-Jun-12 08:33S 29°44' E 031°09'0 0.1
2015-Jun-12 07:30S 29°44' E 031°09'0 0.0
2015-Jun-12 06:33S 29°44' E 031°09'5 5.4
2015-Jun-12 05:34S 29°50' E 031°08'4 4.4
2015-Jun-12 04:33S 29°45' E 031°08'2 1.7
2015-Jun-12 03:31S 29°44' E 031°09'0 0.0
2015-Jun-12 02:31S 29°44' E 031°09'0 0.1
2015-Jun-12 01:31S 29°44' E 031°09'0 0.0
2015-Jun-12 00:22S 29°44' E 031°09'0 0.0
2015-Jun-11 23:31S 29°44' E 031°09'0 0.0
2015-Jun-11 22:31S 29°44' E 031°09'0 0.0
2015-Jun-11 21:31S 29°44' E 031°09'0 0.0
2015-Jun-11 20:31S 29°44' E 031°09'0 0.0
2015-Jun-11 19:31S 29°44' E 031°09'  

Dump ship's entire track history